Latest Weather Observations for Gove Airport

IDD60801

Issued at 11:51 pm CST Sunday 17 February 2019 (issued every 10 minutes, with the page automatically refreshed every 10 minutes)

About weather observations | Map of weather stations | Latest weather observations for NT | Other Formats
Station Details ID: 014508 Name: GOVE AIRPORT Lat: -12.27 Lon: 136.82 Height: 51.6 m
Data from the previous 72 hours. | See also: Recent months at Gove Airport
Date/Time
CST
Temp
°C
App
Temp
°C
Dew
Point
°C
Rel
Hum
%
Delta-T
°C
Wind Press
QNH
hPa
Press
MSL
hPa
Rain since
9am
mm
Dir  Spd
km/h
Gust
km/h
Spd
kts
Gust
kts
17/11:30pm 27.6 32.5 24.6 84 2.1 WNW 7 9 4 5 1011.1 1010.7 0.0
17/11:00pm 27.7 32.3 24.7 84 2.1 NW 9 11 5 6 1011.0 1010.6 0.0
17/10:30pm 27.9 32.6 24.9 84 2.1 NNW 9 11 5 6 1010.9 1010.5 0.0
17/10:00pm 28.1 32.8 25.0 83 2.2 NNW 9 11 5 6 1010.9 1010.5 0.0
17/09:30pm 28.4 32.8 24.5 79 2.7 N 9 11 5 6 1010.6 1010.2 0.0
17/09:00pm 28.5 33.0 24.6 79 2.7 N 9 11 5 6 1010.4 1010.0 0.0
17/08:30pm 28.7 33.1 24.4 77 3.0 N 9 11 5 6 1009.9 1009.5 0.0
17/08:00pm 28.7 33.4 25.0 80 2.6 N 9 11 5 6 1009.7 1009.3 0.0
17/07:30pm 29.0 33.6 24.7 77 3.0 N 9 13 5 7 1009.4 1009.0 0.0
17/07:00pm 29.3 32.9 24.4 75 3.4 N 13 15 7 8 1009.0 1008.6 0.0
17/06:30pm 29.6 32.9 24.5 74 3.6 N 15 19 8 10 1008.3 1007.9 0.0
17/06:00pm 30.0 32.7 24.1 70 4.1 N 17 20 9 11 1008.2 1007.8 0.0
17/05:30pm 31.6 33.9 23.4 61 5.7 N 17 20 9 11 1007.9 1007.5 0.0
17/05:00pm 32.2 33.3 21.2 52 7.4 NNE 17 20 9 11 1008.0 1007.6 0.0
17/04:30pm 32.2 32.4 20.2 49 8.0 NNE 19 24 10 13 1008.0 1007.6 0.0
17/04:00pm 32.4 33.6 22.2 55 7.0 NNE 19 24 10 13 1008.2 1007.8 0.0
17/03:30pm 32.7 33.7 21.0 50 7.9 N 17 24 9 13 1008.6 1008.2 0.0
17/03:00pm 32.9 33.5 21.4 50 7.8 NNE 20 28 11 15 1008.9 1008.5 0.0
17/02:30pm 33.1 33.9 21.3 50 8.0 N 19 26 10 14 1009.3 1008.9 0.0
17/02:00pm 33.0 34.5 21.3 50 7.9 NNE 15 24 8 13 1009.8 1009.4 0.0
17/01:30pm 33.3 35.1 21.9 51 7.8 N 15 22 8 12 1010.3 1009.9 0.0
17/01:00pm 33.4 35.3 22.7 53 7.4 NNE 17 24 9 13 1010.8 1010.4 0.0
17/12:30pm 31.9 34.5 22.7 58 6.3 N 13 26 7 14 1011.4 1011.0 0.0
17/12:00pm 32.1 34.0 23.4 60 6.0 NNE 19 26 10 14 1011.9 1011.5 0.0
17/11:30am 31.6 33.6 23.0 60 5.9 N 17 24 9 13 1012.5 1012.1 0.0
17/11:00am 31.5 33.9 22.9 60 5.9 NNE 15 20 8 11 1012.7 1012.3 0.0
17/10:30am 31.2 33.7 23.1 62 5.6 NNE 15 22 8 12 1012.8 1012.4 0.0
17/10:00am 30.5 32.9 22.9 64 5.2 N 15 24 8 13 1012.8 1012.4 0.0
17/09:30am 31.1 33.3 22.6 60 5.8 N 15 20 8 11 1012.8 1012.4 0.0
17/09:00am 30.1 32.7 23.3 67 4.7 N 15 20 8 11 1012.7 1012.3 0.0
17/08:30am 29.6 32.3 23.4 69 4.3 N 15 20 8 11 1012.4 1012.0 0.0
17/08:00am 29.2 32.6 24.0 73 3.6 N 13 17 7 9 1012.1 1011.7 0.0
17/07:30am 28.2 32.7 24.0 78 2.9 N 7 9 4 5 1011.6 1011.2 0.0
17/07:00am 26.3 32.4 24.4 89 1.3 CALM 0 0 0 0 1011.1 1010.7 0.0
17/06:30am 25.8 30.9 24.1 90 1.2 N 4 7 2 4 1010.7 1010.3 0.0
17/06:00am 25.7 29.7 23.8 89 1.3 NNW 9 9 5 5 1010.4 1010.0 0.0
17/05:30am 26.7 30.7 23.8 84 2.0 N 9 11 5 6 1010.3 1009.9 0.0
17/05:00am 26.8 30.5 23.9 84 2.0 N 11 11 6 6 1010.1 1009.7 0.0
17/04:30am 26.1 30.9 24.1 89 1.4 N 6 7 3 4 1010.0 1009.6 0.0
17/04:00am 26.8 30.4 23.7 83 2.1 N 11 13 6 7 1010.0 1009.6 0.0
17/03:30am 26.8 30.9 23.9 84 2.0 N 9 13 5 7 1010.0 1009.6 0.0
17/03:00am 25.9 31.9 24.2 90 1.2 CALM 0 6 0 3 1010.2 1009.8 0.0
17/02:30am 26.2 32.2 24.2 89 1.4 CALM 0 0 0 0 1010.1 1009.7 0.0
17/02:00am 26.1 30.9 24.1 89 1.4 NNW 6 7 3 4 1010.2 1009.8 0.0
17/01:30am 26.0 32.0 24.3 90 1.2 CALM 0 7 0 4 1010.5 1010.1 0.0
17/01:00am 26.1 32.0 24.1 89 1.4 CALM 0 0 0 0 1011.0 1010.6 0.0
17/12:30am 26.9 31.7 24.2 85 1.9 NNE 6 6 3 3 1011.2 1010.8 0.0
17/12:00am 27.4 31.7 23.6 80 2.6 NE 7 9 4 5 1011.5 1011.1 0.0
 
Date/Time
CST
Temp
°C
App
Temp
°C
Dew
Point
°C
Rel
Hum
%
Delta-T
°C
Wind Press
QNH
hPa
Press
MSL
hPa
Rain since
9am
mm
Dir  Spd
km/h
Gust
km/h
Spd
kts
Gust
kts
16/11:30pm 27.9 31.6 23.2 75 3.2 NNE 9 11 5 6 1011.9 1011.5 0.0
16/11:00pm 27.6 32.0 23.8 80 2.6 NNE 7 7 4 4 1012.4 1012.0 0.0
16/10:30pm 27.8 32.2 23.4 77 3.0 NNE 6 7 3 4 1012.2 1011.8 0.0
16/10:00pm 28.0 32.2 23.5 76 3.1 NNE 7 9 4 5 1011.8 1011.4 0.0
16/09:30pm 28.2 32.6 23.4 75 3.3 NNE 6 9 3 5 1011.5 1011.1 0.0
16/09:00pm 28.4 32.3 23.0 72 3.7 NNE 7 9 4 5 1011.1 1010.7 0.0
16/08:30pm 28.6 31.8 22.4 69 4.2 NNE 9 13 5 7 1011.0 1010.6 0.0
16/08:00pm 28.7 32.1 22.7 70 4.1 NE 9 11 5 6 1010.8 1010.4 0.0
16/07:30pm 29.1 33.0 23.0 69 4.2 NE 7 9 4 5 1010.8 1010.4 0.0
16/07:00pm 29.5 33.1 23.1 68 4.4 NNE 9 11 5 6 1010.3 1009.9 0.0
16/06:30pm 30.0 32.5 22.5 64 5.1 NNE 13 19 7 10 1009.7 1009.3 0.0
16/06:00pm 30.4 32.2 21.8 60 5.8 NNE 15 19 8 10 1009.3 1008.9 0.0
16/05:30pm 31.1 32.6 21.3 56 6.6 NNE 15 19 8 10 1009.1 1008.7 0.0
16/05:00pm 31.7 33.4 21.7 55 6.8 N 15 20 8 11 1009.1 1008.7 0.0
16/04:30pm 32.1 33.3 20.6 50 7.7 NE 15 19 8 10 1009.0 1008.6 0.0
16/04:00pm 31.9 32.9 20.3 50 7.7 NE 15 20 8 11 1009.5 1009.1 0.0
16/03:30pm 31.8 33.5 21.6 54 6.9 NNE 15 20 8 11 1010.0 1009.6 0.0
16/03:00pm 31.7 33.6 22.7 59 6.2 NE 17 26 9 14 1010.1 1009.7 0.0
16/02:30pm 32.4 35.1 24.1 61 5.8 ENE 17 28 9 15 1010.2 1009.8 0.0
16/02:00pm 32.1 34.6 23.8 61 5.8 ENE 17 28 9 15 1010.9 1010.5 0.0
16/01:30pm 31.8 34.1 24.1 63 5.4 E 19 30 10 16 1011.3 1010.9 0.0
16/01:00pm 32.2 34.7 24.5 64 5.4 ENE 19 24 10 13 1011.6 1011.2 0.0
16/12:30pm 32.3 35.2 24.5 63 5.5 E 17 24 9 13 1012.0 1011.6 0.0
16/12:00pm 31.5 34.9 24.0 64 5.2 ENE 13 20 7 11 1012.2 1011.8 0.0
16/11:30am 32.5 36.5 22.8 56 6.7 S 6 9 3 5 1012.5 1012.1 0.0
16/11:00am 31.8 35.5 22.6 58 6.3 SSE 7 13 4 7 1012.9 1012.5 0.0
16/10:30am 31.4 35.9 23.6 63 5.4 N 6 11 3 6 1013.1 1012.7 0.0
16/10:00am 30.9 34.7 23.5 64 5.1 NW 9 15 5 8 1013.1 1012.7 0.0
16/09:30am 30.0 32.9 23.2 67 4.7 W 13 19 7 10 1013.1 1012.7 0.0
16/09:00am 29.6 32.9 23.8 71 4.0 W 13 20 7 11 1012.8 1012.4 0.0
16/08:30am 28.7 33.1 25.1 81 2.5 W 11 19 6 10 1012.9 1012.5 0.0
16/08:00am 28.1 33.3 25.7 87 1.7 W 9 13 5 7 1012.9 1012.5 0.0
16/07:30am 26.9 33.7 25.6 93 0.9 CALM 0 0 0 0 1012.8 1012.4 0.0
16/07:00am 26.3 33.0 25.4 95 0.6 CALM 0 0 0 0 1012.4 1012.0 0.0
16/06:30am 26.0 31.3 25.0 94 0.7 WSW 6 9 3 5 1012.3 1011.9 0.0
16/06:00am 26.8 32.2 25.2 91 1.1 NW 6 9 3 5 1012.3 1011.9 0.0
16/05:30am 26.6 32.1 25.3 93 0.9 WNW 6 7 3 4 1012.3 1011.9 0.0
16/05:00am 26.9 32.2 25.3 91 1.1 NW 7 9 4 5 1012.1 1011.7 0.0
16/04:30am 27.0 32.5 25.6 92 1.0 NW 7 11 4 6 1011.8 1011.4 0.0
16/04:00am 26.8 32.2 25.5 93 0.9 NW 7 7 4 4 1011.5 1011.1 0.0
16/03:30am 27.0 31.6 25.4 91 1.1 NW 11 15 6 8 1011.3 1010.9 0.0
16/03:00am 26.9 31.5 25.3 91 1.1 NW 11 15 6 8 1011.6 1011.2 0.0
16/02:30am 26.8 31.5 25.5 93 0.9 NNW 11 13 6 7 1011.5 1011.1 0.0
16/02:00am 26.8 31.9 25.5 93 0.9 NW 9 13 5 7 1011.9 1011.5 0.0
16/01:30am 26.6 31.7 25.6 94 0.7 NNW 9 9 5 5 1011.9 1011.5 0.0
16/01:00am 27.0 32.1 25.6 92 1.0 NNW 9 13 5 7 1012.1 1011.7 0.0
16/12:30am 27.2 32.3 25.6 91 1.1 NW 9 11 5 6 1012.3 1011.9 0.0
16/12:00am 27.6 32.3 25.5 88 1.5 NW 11 15 6 8 1012.8 1012.4 0.0
 
Date/Time
CST
Temp
°C
App
Temp
°C
Dew
Point
°C
Rel
Hum
%
Delta-T
°C
Wind Press
QNH
hPa
Press
MSL
hPa
Rain since
9am
mm
Dir  Spd
km/h
Gust
km/h
Spd
kts
Gust
kts
15/11:30pm 27.7 32.6 25.3 87 1.7 NW 9 13 5 7 1013.1 1012.7 0.0
15/11:00pm 27.6 32.5 25.3 87 1.6 NNW 9 11 5 6 1013.2 1012.8 0.0
15/10:30pm 28.0 32.9 25.3 85 1.9 NNW 9 11 5 6 1013.1 1012.7 0.0
15/10:00pm 28.1 32.9 25.1 84 2.1 NW 9 11 5 6 1013.1 1012.7 0.0
15/09:30pm 28.3 33.2 25.2 83 2.2 NW 9 13 5 7 1012.8 1012.4 0.0
15/09:00pm 28.5 32.6 25.2 82 2.3 NW 13 17 7 9 1012.3 1011.9 0.0
15/08:30pm 28.6 33.7 25.5 83 2.2 N 9 11 5 6 1011.9 1011.5 0.0
15/08:00pm 28.9 33.8 25.2 80 2.6 N 9 13 5 7 1011.4 1011.0 0.0
15/07:30pm 29.3 33.8 25.2 78 2.9 N 11 13 6 7 1011.1 1010.7 0.0
15/07:00pm 29.7 33.4 25.2 77 3.2 NNW 15 19 8 10 1010.4 1010.0 0.0
15/06:30pm 30.5 33.7 24.4 70 4.3 NNW 15 20 8 11 1010.1 1009.7 0.0
15/06:00pm 31.0 33.0 24.0 66 4.9 NNW 20 26 11 14 1009.4 1009.0 0.0
15/05:30pm 31.4 33.1 24.1 65 5.1 NW 22 30 12 16 1009.1 1008.7 0.0
15/05:00pm 31.9 33.7 23.6 61 5.8 NNW 20 32 11 17 1009.2 1008.8 0.0
15/04:30pm 31.8 33.3 24.4 65 5.2 NNW 24 32 13 17 1009.1 1008.7 0.0
15/04:00pm 32.6 34.9 24.5 62 5.7 N 20 28 11 15 1009.3 1008.9 0.0
15/03:30pm 32.9 34.3 22.9 55 6.9 N 20 28 11 15 1009.7 1009.3 0.0
15/03:00pm 33.1 34.7 23.3 56 6.8 N 20 26 11 14 1010.0 1009.6 0.0
15/02:30pm 33.2 34.5 22.6 53 7.3 N 20 26 11 14 1010.3 1009.9 0.0
15/02:00pm 32.5 33.8 22.6 56 6.8 N 20 28 11 15 1010.5 1010.1 0.0
15/01:30pm 33.2 35.5 23.4 56 6.8 NNE 17 24 9 13 1010.9 1010.5 0.0
15/01:00pm 32.9 35.5 24.0 59 6.2 N 17 24 9 13 1011.3 1010.9 0.0
15/12:30pm 32.5 35.6 23.6 59 6.2 NW 13 20 7 11 1011.8 1011.4 0.0
15/12:00pm 33.2 36.8 25.0 62 5.8 NNW 15 22 8 12 1012.2 1011.8 0.0
15/11:30am 32.7 36.9 24.8 63 5.6 NW 11 17 6 9 1012.5 1012.1 0.0
15/11:00am 31.9 36.2 24.3 64 5.3 N 9 15 5 8 1012.6 1012.2 0.0
15/10:30am 31.4 35.3 24.9 68 4.6 NNW 13 20 7 11 1012.6 1012.2 0.0
15/10:00am 31.6 34.8 24.9 67 4.7 NNW 17 22 9 12 1012.6 1012.2 0.0
15/09:30am 31.0 35.1 25.7 73 3.8 NW 15 20 8 11 1012.4 1012.0 0.0
15/09:00am 30.2 33.6 25.2 74 3.5 NW 17 22 9 12 1012.5 1012.1 0.0
15/08:30am 29.4 33.6 25.9 81 2.5 NNW 15 20 8 11 1012.4 1012.0 0.0
15/08:00am 28.7 33.1 26.3 87 1.7 NNW 15 20 8 11 1012.2 1011.8 0.0
15/07:30am 27.7 33.5 26.6 94 0.8 NNW 9 13 5 7 1011.8 1011.4 0.0
15/07:00am 27.0 33.0 26.4 96 0.4 NW 7 9 4 5 1011.4 1011.0 0.0
15/06:30am 26.6 32.3 25.9 96 0.5 NW 7 9 4 5 1011.0 1010.6 0.0
15/06:00am 26.7 32.5 26.1 96 0.4 NW 7 11 4 6 1010.6 1010.2 0.0
15/05:30am 26.8 32.3 26.2 96 0.4 NW 9 11 5 6 1010.6 1010.2 0.0
15/05:00am 27.0 32.5 26.2 95 0.6 NW 9 13 5 7 1010.5 1010.1 0.0
15/04:30am 27.0 32.9 26.2 95 0.6 NW 7 9 4 5 1010.3 1009.9 0.0
15/04:00am 27.1 32.3 26.3 95 0.6 NW 11 15 6 8 1010.2 1009.8 0.0
15/03:30am 27.2 32.9 26.5 96 0.5 NNW 9 13 5 7 1010.2 1009.8 0.0
15/03:00am 27.4 32.3 26.4 94 0.7 NW 13 17 7 9 1010.4 1010.0 0.0
15/02:30am 27.5 32.8 26.4 94 0.8 NW 11 15 6 8 1010.7 1010.3 0.0
15/02:00am 27.5 33.2 26.4 94 0.8 NW 9 13 5 7 1011.1 1010.7 0.0
15/01:30am 27.5 33.2 26.4 94 0.8 NW 9 15 5 8 1011.4 1011.0 0.0
15/01:00am 27.5 33.0 26.2 93 0.9 NW 9 11 5 6 1011.4 1011.0 0.0
15/12:30am 27.6 32.9 26.5 94 0.8 NW 11 13 6 7 1011.4 1011.0 0.0
15/12:00am 27.7 33.7 26.3 92 1.0 NW 7 11 4 6 1011.5 1011.1 0.0

Other Formats:

Comma delimited format used in spreadsheet applications
http://www.bom.gov.au/fwo/IDD60801/IDD60801.94150.axf

JavaScript Object Notation format (JSON) in row-major order
http://www.bom.gov.au/fwo/IDD60801/IDD60801.94150.json